createdAt,value
2022-11-30T00:01:11.671Z,15.82
2022-11-30T00:03:58.342Z,15.27
2022-11-30T00:06:44.923Z,15.52
2022-11-30T00:09:31.059Z,18.08
2022-11-30T00:12:17.089Z,18.38
2022-11-30T00:15:03.515Z,16.80
2022-11-30T00:17:49.576Z,14.25
2022-11-30T00:20:35.704Z,16.27
2022-11-30T00:23:22.115Z,17.60
2022-11-30T00:26:09.095Z,17.25
2022-11-30T00:28:55.632Z,15.98
2022-11-30T00:31:42.027Z,16.75
2022-11-30T00:34:28.234Z,15.15
2022-11-30T00:37:15.185Z,18.42
2022-11-30T00:40:02.291Z,16.35
2022-11-30T00:42:48.607Z,16.70
2022-11-30T00:45:34.896Z,15.43
2022-11-30T00:48:21.197Z,15.90
2022-11-30T00:51:07.656Z,16.10
2022-11-30T00:53:54.463Z,17.15
2022-11-30T00:56:40.586Z,19.55
2022-11-30T00:59:26.761Z,17.15
2022-11-30T01:02:12.990Z,17.15
2022-11-30T01:04:58.955Z,17.38
2022-11-30T01:07:45.095Z,16.20
2022-11-30T01:10:31.527Z,17.80
2022-11-30T01:13:17.732Z,18.95
2022-11-30T01:16:09.224Z,18.10
2022-11-30T01:18:55.708Z,17.48
2022-11-30T01:21:42.148Z,17.75
2022-11-30T01:24:28.322Z,17.27
2022-11-30T01:27:14.766Z,17.10
2022-11-30T01:30:00.947Z,17.25
2022-11-30T01:32:46.891Z,17.60
2022-11-30T01:35:33.233Z,18.48
2022-11-30T01:38:19.316Z,19.15
2022-11-30T01:41:06.173Z,19.02
2022-11-30T01:43:53.838Z,19.20
2022-11-30T01:46:39.958Z,17.55
2022-11-30T01:49:31.588Z,18.42
2022-11-30T01:52:50.380Z,18.65
2022-11-30T01:55:38.339Z,17.42
2022-11-30T01:58:26.446Z,18.90
2022-11-30T02:01:12.555Z,19.27
2022-11-30T02:04:25.201Z,17.90
2022-11-30T02:07:11.613Z,16.15
2022-11-30T02:09:57.608Z,16.65
2022-11-30T02:12:46.931Z,16.80
2022-11-30T02:15:45.303Z,14.57
2022-11-30T02:18:37.877Z,16.67
2022-11-30T02:21:31.377Z,17.25
2022-11-30T02:24:40.523Z,15.68
2022-11-30T02:27:26.876Z,18.77
2022-11-30T02:30:23.591Z,17.10
2022-11-30T02:33:13.050Z,15.77
2022-11-30T02:36:00.326Z,16.67
2022-11-30T02:38:46.974Z,16.50
2022-11-30T02:41:40.214Z,17.73
2022-11-30T02:47:16.105Z,20.40
2022-11-30T02:50:06.383Z,22.58
2022-11-30T02:52:53.298Z,20.17
2022-11-30T02:55:39.698Z,18.98
2022-11-30T02:58:25.944Z,20.88
2022-11-30T03:01:12.026Z,18.88
2022-11-30T03:03:58.054Z,19.38
2022-11-30T03:06:44.227Z,18.30
2022-11-30T03:09:30.428Z,20.15
2022-11-30T03:12:17.281Z,18.80
2022-11-30T03:15:03.787Z,18.83
2022-11-30T03:17:50.089Z,18.38
2022-11-30T03:20:36.241Z,19.63
2022-11-30T03:23:22.594Z,17.27
2022-11-30T03:26:09.966Z,18.45
2022-11-30T03:28:55.997Z,20.38
2022-11-30T03:31:42.253Z,18.27
2022-11-30T03:34:28.802Z,17.67
2022-11-30T03:37:15.000Z,18.85
2022-11-30T03:40:01.272Z,18.40
2022-11-30T03:42:47.242Z,16.70
2022-11-30T03:45:36.209Z,20.60
2022-11-30T03:48:22.578Z,18.65
2022-11-30T03:51:09.394Z,18.88
2022-11-30T03:53:55.676Z,19.98
2022-11-30T03:56:41.780Z,19.85
2022-11-30T03:59:27.841Z,17.35
2022-11-30T04:02:14.164Z,19.50
2022-11-30T04:05:00.303Z,18.85
2022-11-30T04:07:46.417Z,17.20
2022-11-30T04:10:32.834Z,17.52
2022-11-30T04:13:20.180Z,17.13
2022-11-30T04:16:06.988Z,16.13
2022-11-30T04:18:53.156Z,17.38
2022-11-30T04:21:39.169Z,17.75
2022-11-30T04:24:25.480Z,17.23
2022-11-30T04:27:11.664Z,16.05
2022-11-30T04:29:58.455Z,18.13
2022-11-30T04:32:44.782Z,17.77
2022-11-30T04:35:31.162Z,15.93
2022-11-30T04:38:17.340Z,17.65
2022-11-30T04:41:08.003Z,17.20
2022-11-30T04:43:54.576Z,16.38
2022-11-30T04:46:41.259Z,18.17
2022-11-30T04:49:27.299Z,17.83
2022-11-30T04:52:14.098Z,17.50
2022-11-30T04:55:00.217Z,19.75
2022-11-30T04:57:46.870Z,18.13
2022-11-30T05:00:33.772Z,17.20
2022-11-30T05:03:45.692Z,18.58
2022-11-30T05:06:31.886Z,18.23
2022-11-30T05:09:18.004Z,18.10
2022-11-30T05:12:04.252Z,19.25
2022-11-30T05:14:50.607Z,17.17
2022-11-30T05:17:36.656Z,17.65
2022-11-30T05:20:22.770Z,17.55
2022-11-30T05:23:08.993Z,19.40
2022-11-30T05:25:55.814Z,17.35
2022-11-30T05:28:41.939Z,20.05
2022-11-30T05:31:28.219Z,18.75
2022-11-30T05:34:14.918Z,17.55
2022-11-30T05:37:01.043Z,20.15
2022-11-30T05:39:47.225Z,17.98
2022-11-30T05:42:33.476Z,19.25
2022-11-30T05:45:19.572Z,20.30
2022-11-30T05:48:06.042Z,20.60
2022-11-30T05:50:52.180Z,20.05
2022-11-30T05:53:38.489Z,21.17
2022-11-30T05:56:25.133Z,21.27
2022-11-30T05:59:11.912Z,20.48
2022-11-30T06:01:58.437Z,20.77
2022-11-30T06:04:45.676Z,22.48
2022-11-30T06:07:32.138Z,25.08
2022-11-30T06:10:18.503Z,23.75
2022-11-30T06:13:09.778Z,22.65
2022-11-30T06:15:59.301Z,23.63
2022-11-30T06:18:54.812Z,23.43
2022-11-30T06:21:41.313Z,22.13
2022-11-30T06:24:27.231Z,23.60
2022-11-30T06:27:13.404Z,22.15
2022-11-30T06:29:59.562Z,23.60
2022-11-30T06:32:46.364Z,22.05
2022-11-30T06:35:32.655Z,23.52
2022-11-30T06:38:18.864Z,22.98
2022-11-30T06:41:09.408Z,23.80
2022-11-30T06:43:55.861Z,24.13
2022-11-30T06:46:42.416Z,23.23
2022-11-30T06:49:29.173Z,23.90
2022-11-30T06:52:15.961Z,24.23
2022-11-30T06:55:02.423Z,23.52
2022-11-30T06:57:48.520Z,29.48
2022-11-30T07:00:34.847Z,27.95
2022-11-30T07:03:21.382Z,28.85
2022-11-30T07:06:09.333Z,26.23
2022-11-30T07:08:55.312Z,25.42
2022-11-30T07:11:42.269Z,28.45
2022-11-30T07:14:29.814Z,25.35
2022-11-30T07:17:16.264Z,25.52
2022-11-30T07:20:02.376Z,26.33
2022-11-30T07:22:48.586Z,26.30
2022-11-30T07:25:53.370Z,26.30
2022-11-30T07:28:41.148Z,28.08
2022-11-30T07:31:52.832Z,25.38
2022-11-30T07:34:39.317Z,25.38
2022-11-30T07:37:25.782Z,26.15
2022-11-30T07:40:12.500Z,27.85
2022-11-30T07:42:59.465Z,26.58
2022-11-30T07:45:52.376Z,29.13
2022-11-30T07:51:25.449Z,35.08
2022-11-30T07:54:11.810Z,30.85
2022-11-30T07:56:57.978Z,32.47
2022-11-30T07:59:44.065Z,28.25
2022-11-30T08:02:30.390Z,29.05
2022-11-30T08:05:16.596Z,27.55
2022-11-30T08:08:03.529Z,31.27
2022-11-30T08:10:50.004Z,32.83
2022-11-30T08:13:36.357Z,25.98
2022-11-30T08:16:24.015Z,29.17
2022-11-30T08:19:10.449Z,30.25
2022-11-30T08:21:56.724Z,27.95
2022-11-30T08:24:43.106Z,27.58
2022-11-30T08:27:29.663Z,32.38
2022-11-30T08:30:41.029Z,29.58
2022-11-30T08:33:30.769Z,31.35
2022-11-30T08:36:18.283Z,26.42
2022-11-30T08:39:05.464Z,27.13
2022-11-30T08:41:53.156Z,26.88
2022-11-30T08:44:39.467Z,25.67
2022-11-30T08:47:25.961Z,26.70
2022-11-30T08:50:12.660Z,25.92
2022-11-30T08:53:03.236Z,24.10
2022-11-30T08:55:59.769Z,24.38
2022-11-30T08:58:47.245Z,24.90
2022-11-30T09:01:33.513Z,25.48
2022-11-30T09:04:19.547Z,27.77
2022-11-30T09:07:06.184Z,26.15
2022-11-30T09:09:52.622Z,28.20
2022-11-30T09:12:39.513Z,26.50
2022-11-30T09:15:25.765Z,27.17
2022-11-30T09:18:13.014Z,27.05
2022-11-30T09:21:03.466Z,27.92
2022-11-30T09:23:50.856Z,25.40
2022-11-30T09:26:37.572Z,24.55
2022-11-30T09:29:24.241Z,28.42
2022-11-30T09:32:10.475Z,29.58
2022-11-30T09:34:56.696Z,25.75
2022-11-30T09:37:43.471Z,26.55
2022-11-30T09:40:34.169Z,27.42
2022-11-30T09:43:46.230Z,23.98
2022-11-30T09:46:40.677Z,21.25
2022-11-30T09:49:31.509Z,23.52
2022-11-30T09:52:50.589Z,24.20
2022-11-30T09:55:42.655Z,25.95
2022-11-30T09:58:56.103Z,24.60
2022-11-30T10:01:46.097Z,24.90
2022-11-30T10:04:33.253Z,25.13
2022-11-30T10:07:31.950Z,25.25
2022-11-30T10:10:32.131Z,23.42
2022-11-30T10:13:39.475Z,22.48
2022-11-30T10:16:38.067Z,23.70
2022-11-30T10:19:27.601Z,24.30
2022-11-30T10:22:31.984Z,24.35
2022-11-30T10:25:18.190Z,23.90
2022-11-30T10:31:37.740Z,23.13
2022-11-30T10:34:33.898Z,26.52
2022-11-30T10:37:26.073Z,28.92
2022-11-30T10:40:15.164Z,27.08
2022-11-30T10:43:08.301Z,28.83
2022-11-30T10:46:20.128Z,31.67
2022-11-30T10:49:09.005Z,31.15
2022-11-30T10:51:58.565Z,30.95
2022-11-30T10:54:45.799Z,32.85
2022-11-30T10:57:34.212Z,29.52
2022-11-30T11:00:21.271Z,26.45
2022-11-30T11:03:24.208Z,27.60
2022-11-30T11:06:17.944Z,28.33
2022-11-30T11:09:27.838Z,30.27
2022-11-30T11:12:19.263Z,30.55
2022-11-30T11:15:26.017Z,30.90
2022-11-30T11:18:26.584Z,28.75
2022-11-30T11:21:15.168Z,30.45
2022-11-30T11:24:04.266Z,29.60
2022-11-30T11:26:51.287Z,30.60
2022-11-30T11:29:37.607Z,29.77
2022-11-30T11:32:28.393Z,34.10
2022-11-30T11:35:33.762Z,26.85
2022-11-30T11:38:23.353Z,30.67
2022-11-30T11:41:27.524Z,30.92
2022-11-30T11:44:13.754Z,32.47
2022-11-30T11:47:02.706Z,27.58
2022-11-30T11:49:50.926Z,32.53
2022-11-30T11:52:41.016Z,29.25
2022-11-30T11:55:29.024Z,30.08
2022-11-30T11:58:19.573Z,29.02
2022-11-30T12:01:38.050Z,28.23
2022-11-30T12:04:18.571Z,29.30
2022-11-30T12:07:17.965Z,30.63
2022-11-30T12:10:50.000Z,30.73
2022-11-30T12:22:58.642Z,36.58
2022-11-30T12:26:08.783Z,36.92
2022-11-30T12:29:07.085Z,32.35
2022-11-30T12:32:12.673Z,30.75
2022-11-30T12:38:51.353Z,31.17
2022-11-30T12:44:42.953Z,33.35
2022-11-30T12:47:44.532Z,36.20
2022-11-30T12:50:30.900Z,36.38
2022-11-30T12:53:24.196Z,38.75
2022-11-30T12:56:16.411Z,38.15
2022-11-30T12:59:02.408Z,39.95
2022-11-30T13:01:51.751Z,44.28
2022-11-30T13:04:57.653Z,41.72
2022-11-30T13:07:47.278Z,48.45
2022-11-30T13:10:39.658Z,44.63
2022-11-30T13:13:29.965Z,44.28
2022-11-30T13:16:16.275Z,45.30
2022-11-30T13:19:08.945Z,56.20
2022-11-30T13:21:58.912Z,57.70
2022-11-30T13:24:52.094Z,46.35
2022-11-30T13:27:43.842Z,50.00
2022-11-30T13:30:56.807Z,52.85
2022-11-30T13:33:55.423Z,50.78
2022-11-30T13:36:46.321Z,44.95
2022-11-30T13:39:45.563Z,49.22
2022-11-30T13:42:34.305Z,46.80
2022-11-30T13:45:27.490Z,46.85
2022-11-30T13:48:19.257Z,49.63
2022-11-30T13:51:05.537Z,46.35
2022-11-30T13:54:27.534Z,39.95
2022-11-30T13:57:18.246Z,42.88
2022-11-30T14:00:25.357Z,44.17
2022-11-30T14:03:21.091Z,43.90
2022-11-30T14:06:29.063Z,41.17
2022-11-30T14:09:16.409Z,41.67
2022-11-30T14:12:22.058Z,40.22
2022-11-30T14:15:34.256Z,41.95
2022-11-30T14:18:21.890Z,41.63
2022-11-30T14:21:20.509Z,46.90
2022-11-30T14:24:20.123Z,41.88
2022-11-30T14:27:07.106Z,44.20
2022-11-30T14:29:55.820Z,42.35
2022-11-30T14:32:43.810Z,43.63
2022-11-30T14:35:56.130Z,39.80
2022-11-30T14:38:42.914Z,43.88
2022-11-30T14:41:30.591Z,41.20
2022-11-30T14:44:17.001Z,40.80
2022-11-30T14:47:21.873Z,42.83
2022-11-30T14:50:20.880Z,37.35
2022-11-30T14:53:07.421Z,39.88
2022-11-30T14:56:20.311Z,37.53
2022-11-30T14:59:13.613Z,39.15
2022-11-30T15:02:01.295Z,39.20
2022-11-30T15:04:49.120Z,38.67
2022-11-30T15:07:36.260Z,35.88
2022-11-30T15:10:34.230Z,38.58
2022-11-30T15:13:20.688Z,36.78
2022-11-30T15:16:10.376Z,38.47
2022-11-30T15:18:58.137Z,41.00
2022-11-30T15:21:46.001Z,39.97
2022-11-30T15:24:32.295Z,41.95
2022-11-30T15:27:23.943Z,38.70
2022-11-30T15:30:14.120Z,37.30
2022-11-30T15:33:00.532Z,38.88
2022-11-30T15:36:15.848Z,40.25
2022-11-30T15:38:56.058Z,44.92
2022-11-30T15:41:42.534Z,47.70
2022-11-30T15:44:44.279Z,42.00
2022-11-30T15:47:36.671Z,43.67
2022-11-30T15:50:26.858Z,48.27
2022-11-30T15:53:28.296Z,41.25
2022-11-30T15:56:24.197Z,45.53
2022-11-30T15:59:25.520Z,40.92
2022-11-30T16:02:25.210Z,42.78
2022-11-30T16:05:32.579Z,38.92
2022-11-30T16:08:19.084Z,42.97
2022-11-30T16:11:08.229Z,42.95
2022-11-30T16:13:54.830Z,45.38
2022-11-30T16:16:42.320Z,39.42
2022-11-30T16:19:28.569Z,37.72
2022-11-30T16:22:15.463Z,38.47
2022-11-30T16:25:02.450Z,41.75
2022-11-30T16:27:49.057Z,40.70
2022-11-30T16:30:35.579Z,41.20
2022-11-30T16:33:24.530Z,37.42
2022-11-30T16:36:15.742Z,43.10
2022-11-30T16:39:05.071Z,38.72
2022-11-30T16:41:51.620Z,38.72
2022-11-30T16:44:38.048Z,41.95
2022-11-30T16:47:24.425Z,40.42
2022-11-30T16:50:12.617Z,37.03
2022-11-30T16:52:59.646Z,39.50
2022-11-30T16:55:45.937Z,40.95
2022-11-30T16:58:32.110Z,41.55
2022-11-30T17:01:35.859Z,37.08
2022-11-30T17:04:24.563Z,43.70
2022-11-30T17:07:10.732Z,40.97
2022-11-30T17:09:57.197Z,40.30
2022-11-30T17:12:43.943Z,45.83
2022-11-30T17:15:30.792Z,47.45
2022-11-30T17:18:17.386Z,44.17
2022-11-30T17:21:04.114Z,44.03
2022-11-30T17:23:50.634Z,46.25
2022-11-30T17:26:37.169Z,46.10
2022-11-30T17:29:23.835Z,45.55
2022-11-30T17:32:10.335Z,47.83
2022-11-30T17:34:57.498Z,44.70
2022-11-30T17:37:44.210Z,47.47
2022-11-30T17:40:30.261Z,49.78
2022-11-30T17:43:17.386Z,49.42
2022-11-30T17:46:29.298Z,44.40
2022-11-30T17:49:16.637Z,47.08
2022-11-30T17:52:03.461Z,46.67
2022-11-30T17:54:50.219Z,49.47
2022-11-30T17:57:38.782Z,48.03
2022-11-30T18:00:26.000Z,54.10
2022-11-30T18:03:12.783Z,47.42
2022-11-30T18:06:03.432Z,44.65
2022-11-30T18:08:52.479Z,43.80
2022-11-30T18:11:39.368Z,46.70
2022-11-30T18:14:26.365Z,41.35
2022-11-30T18:17:13.556Z,42.97
2022-11-30T18:20:00.137Z,40.50
2022-11-30T18:22:46.451Z,41.33
2022-11-30T18:25:35.039Z,45.58
2022-11-30T18:28:21.385Z,47.40
2022-11-30T18:31:08.887Z,45.67
2022-11-30T18:33:56.250Z,42.15
2022-11-30T18:36:42.699Z,44.20
2022-11-30T18:39:29.596Z,43.90
2022-11-30T18:42:16.513Z,42.47
2022-11-30T18:45:03.592Z,41.30
2022-11-30T18:47:50.824Z,44.70
2022-11-30T18:50:37.752Z,44.85
2022-11-30T18:53:24.491Z,46.97
2022-11-30T18:56:15.402Z,43.88
2022-11-30T18:59:06.639Z,42.45
2022-11-30T19:01:54.249Z,41.78
2022-11-30T19:04:41.129Z,43.80
2022-11-30T19:07:27.365Z,41.72
2022-11-30T19:10:13.796Z,44.00
2022-11-30T19:13:00.503Z,42.65
2022-11-30T19:15:46.943Z,44.22
2022-11-30T19:18:33.105Z,42.22
2022-11-30T19:21:40.449Z,43.10
2022-11-30T19:24:26.721Z,39.75
2022-11-30T19:27:13.035Z,46.58
2022-11-30T19:30:00.249Z,45.50
2022-11-30T19:32:47.340Z,49.25
2022-11-30T19:35:33.773Z,44.92
2022-11-30T19:38:20.897Z,47.45
2022-11-30T19:41:10.774Z,46.80
2022-11-30T19:44:03.239Z,45.28
2022-11-30T19:46:51.135Z,43.92
2022-11-30T19:49:37.954Z,46.58
2022-11-30T19:52:24.262Z,45.65
2022-11-30T19:55:10.934Z,47.58
2022-11-30T19:57:57.622Z,44.80
2022-11-30T20:00:46.385Z,46.13
2022-11-30T20:03:36.508Z,46.75
2022-11-30T20:06:29.532Z,48.65
2022-11-30T20:09:16.249Z,37.03
2022-11-30T20:12:03.151Z,45.78
2022-11-30T20:14:51.518Z,48.67
2022-11-30T20:17:37.702Z,44.17
2022-11-30T20:20:24.055Z,46.40
2022-11-30T20:23:10.956Z,43.67
2022-11-30T20:25:58.031Z,46.72
2022-11-30T20:28:44.954Z,48.92
2022-11-30T20:31:31.846Z,49.65
2022-11-30T20:34:18.249Z,46.80
2022-11-30T20:37:05.119Z,45.97
2022-11-30T20:39:51.204Z,47.13
2022-11-30T20:42:37.654Z,43.92
2022-11-30T20:45:23.874Z,48.58
2022-11-30T20:48:10.823Z,48.22
2022-11-30T20:54:08.772Z,48.42
2022-11-30T20:56:58.970Z,48.75
2022-11-30T20:59:46.270Z,48.20
2022-11-30T21:02:32.513Z,48.47
2022-11-30T21:05:22.475Z,48.28
2022-11-30T21:08:09.017Z,46.38
2022-11-30T21:10:55.818Z,49.42
2022-11-30T21:13:47.138Z,48.38
2022-11-30T21:16:34.844Z,49.92
2022-11-30T21:19:21.310Z,45.58
2022-11-30T21:22:09.974Z,46.42
2022-11-30T21:24:56.227Z,47.08
2022-11-30T21:27:42.462Z,51.08
2022-11-30T21:30:28.649Z,46.97
2022-11-30T21:33:15.427Z,46.78
2022-11-30T21:36:27.911Z,45.90
2022-11-30T21:39:14.893Z,46.75
2022-11-30T21:42:07.839Z,47.17
2022-11-30T21:44:54.351Z,46.47
2022-11-30T21:47:41.213Z,42.95
2022-11-30T21:50:27.983Z,49.90
2022-11-30T21:53:17.903Z,44.25
2022-11-30T21:56:05.646Z,45.63
2022-11-30T21:58:52.205Z,48.15
2022-11-30T22:01:46.196Z,44.28
2022-11-30T22:04:37.316Z,47.88
2022-11-30T22:07:31.936Z,42.42
2022-11-30T22:10:23.392Z,46.75
2022-11-30T22:13:14.516Z,44.05
2022-11-30T22:16:05.564Z,47.50
2022-11-30T22:18:55.810Z,43.65
2022-11-30T22:21:46.788Z,40.40
2022-11-30T22:24:36.599Z,43.05
2022-11-30T22:27:23.015Z,42.08
2022-11-30T22:30:10.004Z,37.85
2022-11-30T22:32:56.720Z,41.90
2022-11-30T22:35:43.006Z,40.63
2022-11-30T22:38:29.711Z,41.85
2022-11-30T22:41:19.554Z,42.90
2022-11-30T22:44:06.850Z,38.50
2022-11-30T22:46:53.732Z,41.28
2022-11-30T22:49:40.136Z,39.20
2022-11-30T22:52:48.334Z,42.67
2022-11-30T22:55:33.526Z,38.55
2022-11-30T22:58:19.974Z,42.88
2022-11-30T23:01:17.511Z,41.20
2022-11-30T23:04:07.483Z,43.00
2022-11-30T23:06:54.632Z,40.70
2022-11-30T23:09:43.234Z,37.35
2022-11-30T23:12:58.053Z,37.85
2022-11-30T23:15:36.521Z,33.47
2022-11-30T23:18:23.012Z,36.15
2022-11-30T23:21:10.451Z,34.92
2022-11-30T23:23:58.077Z,39.05
2022-11-30T23:26:44.722Z,38.38
2022-11-30T23:29:32.846Z,37.45
2022-11-30T23:32:19.151Z,40.03
2022-11-30T23:35:06.188Z,40.22
2022-11-30T23:37:53.053Z,36.42
2022-11-30T23:40:39.563Z,35.45
2022-11-30T23:43:28.961Z,35.53
2022-11-30T23:46:15.237Z,37.08
2022-11-30T23:49:01.551Z,35.92
2022-11-30T23:51:47.896Z,35.15
2022-11-30T23:54:34.245Z,37.95
2022-11-30T23:57:20.634Z,35.30
